MET2568 - Amarillo to Kansas City

Bombardier Dash-8-Q200
838AH
1 hr 45 mins
414 nm
Scheduled - Daily

Bid/PiRep Status

Bid was submitted on Oct 04 2016.

PiRep # 73570: Approved by Dave Nichols on October 5th, 2016 3:40 UTC

Departure

Departing from
Amarillo (AMA)
Departure gate
A2
Scheduled Departure
GMT 0115
Local 1915
METAR KAMA 222353Z 14017KT 10SM CLR 21/08 A3000 RMK AO2 SLP138 T02060078 10211 20128 56019
TAF KAMA 222322Z 2300/2324 14018KT P6SM SCT200 FM230900 17018KT 6SM BR SCT008 TEMPO 2310/2314 5SM BR OVC008 FM231500 19025G35KT P6SM SCT050

Arrival

Arriving at
Kansas City (MCI)
Arrival gate
Scheduled Arrival
GMT 0300
Local 2100

Route Map

Planning Resources

PNH J26 ICT CNU.JHAWK6
PHN GAG ICT FRACA KMCI
KAMA BROKE ICT FRACA KMCI
KAMA-PNH-GAG-ICT-FOE-KMCI
KAMA UKDEW V12 EMP.JHAWK6 KMCI
Route:
OFP Layout:
Units:
Detailed Navlog:
ETOPS Planning:
Plan Stepclimbs:
Runway Analysis:
Include NOTAMS:
FIR NOTAMS:
Flight Maps:

Return Flights

MET2563
Bombardier Dash-8-Q200
1200 GMT
MET2565
Bombardier Dash-8-Q200
1810 GMT
MET2567
Bombardier Dash-8-Q200
2310 GMT

Popularity

Hub Current Bids PiReps this month Total PiReps
KMCI 0 0 8
KLAX 0 0 0
KBOS 0 0 0